Time;durP1;ratioP1;P1;durP2;ratioP2;P2;SDS_P1;SDS_P2;PMS_P1;PMS_P2;Temp;Humidity;BMP_temperature;BMP_pressure;BME280_temperature;BME280_humidity;BME280_pressure;Samples;Min_cycle;Max_cycle;Signal;HPM_P1;HPM_P2
2023/12/16 00:00:10;;;;;;;;;74.00;59.50;;;;;0.62;100.00;101430.25;6314109;20;2874271;-41
2023/12/16 00:02:39;;;;;;;;;64.00;48.50;;;;;0.56;100.00;101438.13;6283707;20;2853400;-41
2023/12/16 00:05:08;;;;;;;;;77.50;55.00;;;;;0.58;100.00;101433.75;6284597;20;2879421;-41
2023/12/16 00:07:37;;;;;;;;;73.50;52.50;;;;;0.71;100.00;101434.72;6282446;20;2874225;-41
2023/12/16 00:10:09;;;;;;;;;67.67;49.67;;;;;0.54;100.00;101439.88;6284199;20;2854416;-41
2023/12/16 00:12:39;;;;;;;;;69.50;54.00;;;;;0.62;100.00;101442.56;6315220;20;2866983;-41
2023/12/16 00:15:12;;;;;;;;;70.00;50.50;;;;;0.80;100.00;101441.81;6282690;20;2879465;-43
2023/12/16 00:17:40;;;;;;;;;67.50;50.00;;;;;0.87;100.00;101441.00;6284234;20;2858670;-40
2023/12/16 00:20:11;;;;;;;;;74.67;56.33;;;;;0.64;100.00;101447.00;6280561;20;2874240;-40
2023/12/16 00:22:41;;;;;;;;;71.67;56.67;;;;;0.62;100.00;101454.03;6315078;20;2880554;-40
2023/12/16 00:25:11;;;;;;;;;73.00;55.00;;;;;0.54;100.00;101454.84;6315248;20;2875282;-42
2023/12/16 00:27:39;;;;;;;;;67.00;51.50;;;;;0.85;100.00;101456.84;6306681;20;2500583;-41
2023/12/16 00:30:09;;;;;;;;;74.00;57.50;;;;;0.63;100.00;101460.19;6280344;20;2874243;-40
2023/12/16 00:32:39;;;;;;;;;73.00;55.00;;;;;0.39;100.00;101455.59;6281163;20;2892097;-40
2023/12/16 00:35:10;;;;;;;;;62.00;48.00;;;;;0.13;100.00;101458.91;6315002;20;2871892;-40
2023/12/16 00:37:38;;;;;;;;;79.00;56.50;;;;;0.06;100.00;101457.06;6315715;20;2883617;-40
2023/12/16 00:40:10;;;;;;;;;78.00;58.67;;;;;-0.01;100.00;101465.78;6283206;20;3630447;-40
2023/12/16 00:42:38;;;;;;;;;83.00;65.50;;;;;-0.04;100.00;101473.69;6315129;20;2866974;-41
2023/12/16 00:45:09;;;;;;;;;83.33;64.33;;;;;-0.15;100.00;101477.97;6280797;20;3638916;-41
2023/12/16 00:47:39;;;;;;;;;85.33;65.33;;;;;-0.08;100.00;101480.69;6313238;20;3634649;-41
2023/12/16 00:50:09;;;;;;;;;78.33;60.00;;;;;0.13;100.00;101479.13;6314725;20;2882646;-40
2023/12/16 00:52:38;;;;;;;;;86.00;64.00;;;;;0.21;100.00;101478.34;6315528;20;2897141;-40
2023/12/16 00:55:09;;;;;;;;;84.33;62.33;;;;;-0.07;100.00;101481.56;6283041;20;3649336;-41
2023/12/16 00:57:39;;;;;;;;;95.67;67.00;;;;;0.20;100.00;101470.41;6310217;20;3655471;-43
2023/12/16 01:00:10;;;;;;;;;89.33;65.67;;;;;0.42;100.00;101472.38;6312622;20;3656610;-41
2023/12/16 01:02:38;;;;;;;;;78.50;62.50;;;;;0.32;100.00;101480.22;6314177;20;2883604;-42
2023/12/16 01:05:07;;;;;;;;;70.00;54.00;;;;;0.33;100.00;101481.97;6279413;20;2500292;-41
2023/12/16 01:07:37;;;;;;;;;78.33;57.00;;;;;0.35;100.00;101474.94;6283025;20;2886806;-41
2023/12/16 01:10:07;;;;;;;;;69.00;54.00;;;;;0.49;100.00;101483.88;6310995;20;2876346;-44
2023/12/16 01:12:35;;;;;;;;;62.00;47.00;;;;;0.39;100.00;101480.25;6277713;20;2500272;-44
2023/12/16 01:15:05;;;;;;;;;63.00;45.00;;;;;0.50;100.00;101485.66;6280258;20;2871559;-42
2023/12/16 01:17:35;;;;;;;;;53.00;43.33;;;;;0.43;100.00;101478.53;6280074;20;2872766;-41
2023/12/16 01:20:07;;;;;;;;;57.67;47.00;;;;;0.49;100.00;101483.88;6312010;20;2865003;-42
2023/12/16 01:22:36;;;;;;;;;58.00;44.50;;;;;0.37;100.00;101483.75;6310398;20;2867994;-42
2023/12/16 01:25:06;;;;;;;;;56.33;42.67;;;;;0.49;100.00;101483.88;6282082;20;2875302;-41
2023/12/16 01:27:36;;;;;;;;;59.67;42.00;;;;;0.37;100.00;101474.09;6313109;20;3626711;-41
2023/12/16 01:30:07;;;;;;;;;52.00;40.00;;;;;0.53;100.00;101483.03;6313344;20;2879536;-41
2023/12/16 01:32:36;;;;;;;;;52.00;44.00;;;;;0.65;100.00;101482.25;6313540;20;2855969;-42
2023/12/16 01:35:06;;;;;;;;;55.50;43.50;;;;;0.45;100.00;101482.09;6280735;20;2868026;-43
2023/12/16 01:37:35;;;;;;;;;65.00;46.50;;;;;0.33;100.00;101484.59;6284430;20;2864866;-43
2023/12/16 01:40:05;;;;;;;;;49.50;43.00;;;;;0.21;100.00;101483.63;6280097;20;2856647;-40
2023/12/16 01:42:34;;;;;;;;;48.50;40.00;;;;;0.31;100.00;101483.69;6275822;20;2500324;-40
2023/12/16 01:45:04;;;;;;;;;48.00;41.50;;;;;0.37;100.00;101489.03;6282795;20;2866059;-43
2023/12/16 01:47:32;;;;;;;;;41.00;35.50;;;;;0.28;100.00;101494.25;6279661;20;2500717;-41
2023/12/16 01:50:00;;;;;;;;;42.00;36.00;;;;;0.49;100.00;101505.00;6274576;20;2498187;-40
2023/12/16 01:52:30;;;;;;;;;44.00;36.50;;;;;0.43;100.00;101495.28;6277112;20;2500291;-40
2023/12/16 01:54:58;;;;;;;;;25.00;22.00;;;;;0.33;100.00;101505.75;6278793;20;2821126;-43
2023/12/16 01:57:26;;;;;;;;;42.00;38.00;;;;;0.34;100.00;101503.13;6275822;20;2500327;-41
2023/12/16 01:59:55;;;;;;;;;38.50;33.00;;;;;0.53;100.00;101509.47;6280375;20;2867098;-41
2023/12/16 02:02:26;;;;;;;;;31.00;28.00;;;;;0.44;100.00;101502.31;6279220;20;2500361;-41
2023/12/16 02:04:54;;;;;;;;;33.50;28.00;;;;;0.44;100.00;101504.09;6279167;20;2500323;-41
2023/12/16 02:07:24;;;;;;;;;33.67;29.33;;;;;0.46;100.00;101494.41;6281902;20;3599354;-42
2023/12/16 02:09:52;;;;;;;;;36.00;29.50;;;;;0.44;100.00;101498.78;6274680;20;2500382;-41
2023/12/16 02:12:20;;;;;;;;;33.00;29.00;;;;;0.38;100.00;101496.09;6282893;20;2848188;-40
2023/12/16 02:14:48;;;;;;;;;33.50;27.50;;;;;0.33;100.00;101496.06;6281198;20;3470043;-41
2023/12/16 02:17:16;;;;;;;;;28.50;22.00;;;;;0.37;100.00;101495.22;6311769;20;2852356;-41
2023/12/16 02:19:48;;;;;;;;;30.33;25.33;;;;;0.31;100.00;101499.56;6278345;20;3579491;-42
2023/12/16 02:22:16;;;;;;;;;34.00;29.00;;;;;0.29;100.00;101503.94;6279503;20;2866937;-44
2023/12/16 02:24:45;;;;;;;;;33.50;27.50;;;;;0.34;100.00;101494.28;6275823;20;2500805;-41
2023/12/16 02:27:14;;;;;;;;;31.00;26.33;;;;;-0.02;100.00;101490.44;6276259;20;3586792;-43
2023/12/16 02:29:43;;;;;;;;;32.00;25.00;;;;;-0.85;100.00;101494.66;6281021;20;2852392;-41
2023/12/16 02:32:12;;;;;;;;;28.00;24.00;;;;;-0.43;100.00;101504.00;6282554;20;3571085;-39
2023/12/16 02:34:40;;;;;;;;;26.00;24.00;;;;;-0.52;100.00;101515.34;6313317;20;3579447;-40
2023/12/16 02:37:12;;;;;;;;;29.17;18.67;;;;;-0.17;100.00;101521.94;6305569;20;3602716;-40
2023/12/16 02:39:40;;;;;;;;;34.00;29.50;;;;;0.13;100.00;101517.00;6277400;20;2500297;-40
2023/12/16 02:42:09;;;;;;;;;21.67;17.33;;;;;0.10;100.00;101524.00;6282037;20;3570033;-40
2023/12/16 02:44:37;;;;;;;;;37.00;33.00;;;;;0.00;100.00;101528.31;6308330;20;2500314;-40
2023/12/16 02:47:06;;;;;;;;;33.00;23.00;;;;;-0.34;100.00;101514.69;6281408;20;2852510;-40
2023/12/16 02:49:35;;;;;;;;;37.00;29.00;;;;;-1.07;100.00;101508.41;6279977;20;3586762;-40
2023/12/16 02:52:05;;;;;;;;;43.00;32.50;;;;;-0.50;100.00;101507.44;6278472;20;2868058;-40
2023/12/16 02:54:34;;;;;;;;;34.50;27.50;;;;;-0.61;100.00;101498.50;6280248;20;2852522;-40
2023/12/16 02:57:02;;;;;;;;;34.00;27.00;;;;;-0.88;100.00;101499.91;6278015;20;2502431;-40
2023/12/16 02:59:30;;;;;;;;;38.00;34.50;;;;;-0.54;100.00;101508.28;6278453;20;2500293;-39
2023/12/16 03:01:57;;;;;;;;;34.00;27.00;;;;;-0.93;100.00;101505.09;6278516;20;2858637;-39
2023/12/16 03:04:27;;;;;;;;;53.67;41.00;;;;;-0.67;100.00;101512.50;6279605;20;2883578;-40
2023/12/16 03:06:56;;;;;;;;;48.00;33.00;;;;;-0.38;100.00;101518.16;6309984;20;2866132;-43
2023/12/16 03:09:26;;;;;;;;;48.67;31.67;;;;;-0.40;100.00;101525.16;6278332;20;2881620;-41
2023/12/16 03:11:54;;;;;;;;;32.00;29.00;;;;;-0.28;100.00;101530.59;6311341;20;2836778;-40
2023/12/16 03:14:22;;;;;;;;;35.00;29.00;;;;;-0.19;100.00;101523.66;6279939;20;2843964;-42
2023/12/16 03:16:51;;;;;;;;;25.00;20.33;;;;;-0.20;100.00;101522.78;6277840;20;3563924;-41
2023/12/16 03:19:19;;;;;;;;;38.00;30.00;;;;;-0.08;100.00;101527.31;6307777;20;2500385;-42
2023/12/16 03:21:47;;;;;;;;;36.00;27.00;;;;;-0.13;100.00;101518.44;6286798;20;2500305;-44
2023/12/16 03:24:19;;;;;;;;;19.67;18.33;;;;;-0.14;100.00;101532.53;6289308;20;3568066;-42
2023/12/16 03:26:47;;;;;;;;;30.00;27.50;;;;;-0.09;100.00;101541.38;6290228;20;2836708;-41
2023/12/16 03:29:16;;;;;;;;;37.33;32.33;;;;;-0.22;100.00;101551.78;6289314;20;3605528;-42
2023/12/16 03:31:44;;;;;;;;;35.00;29.50;;;;;-0.22;100.00;101551.78;6286936;20;2500466;-41
2023/12/16 03:34:13;;;;;;;;;24.33;24.33;;;;;-0.11;100.00;101551.03;6288297;20;3577335;-40
2023/12/16 03:36:41;;;;;;;;;33.00;27.00;;;;;-0.24;100.00;101543.00;6291036;20;2860760;-41
2023/12/16 03:39:09;;;;;;;;;29.00;26.50;;;;;-0.20;100.00;101548.28;6287227;20;2496159;-43
2023/12/16 03:41:37;;;;;;;;;32.50;29.50;;;;;-0.05;100.00;101551.13;6287228;20;2500304;-41
2023/12/16 03:44:05;;;;;;;;;34.33;23.00;;;;;-0.07;100.00;101559.03;6286695;20;3583624;-43
2023/12/16 03:46:34;;;;;;;;;24.67;20.67;;;;;-0.26;100.00;101557.91;6288182;20;3576338;-42
2023/12/16 03:49:03;;;;;;;;;24.33;21.00;;;;;-0.18;100.00;101563.28;6288157;20;3570033;-39
2023/12/16 03:51:32;;;;;;;;;33.00;31.67;;;;;-0.37;100.00;101562.16;6288635;20;3594071;-40
2023/12/16 03:54:00;;;;;;;;;39.00;33.50;;;;;-0.45;100.00;101566.44;6289533;20;2491938;-41
2023/12/16 03:56:28;;;;;;;;;33.50;31.00;;;;;-0.15;100.00;101557.16;6287685;20;2500273;-40
2023/12/16 03:58:56;;;;;;;;;34.50;29.00;;;;;-0.26;100.00;101557.91;6288432;20;2847565;-40
2023/12/16 04:01:24;;;;;;;;;39.33;28.00;;;;;-0.39;100.00;101561.25;6291514;20;2865942;-41
2023/12/16 04:03:53;;;;;;;;;31.00;29.50;;;;;-0.18;100.00;101567.69;6320284;20;2845105;-42
2023/12/16 04:06:22;;;;;;;;;40.00;29.33;;;;;-0.28;100.00;101567.56;6291070;20;3607659;-40
2023/12/16 04:08:52;;;;;;;;;26.40;18.80;;;;;-0.45;100.00;101566.44;6313085;20;2819019;-41
2023/12/16 04:11:20;;;;;;;;;42.00;33.50;;;;;-0.69;100.00;101574.88;6288033;20;2500268;-41
2023/12/16 04:13:49;;;;;;;;;36.67;29.67;;;;;-1.15;100.00;101569.78;6290422;20;3596078;-40
2023/12/16 04:16:17;;;;;;;;;44.50;34.50;;;;;-0.85;100.00;101565.84;6285439;20;2498208;-42
2023/12/16 04:18:45;;;;;;;;;30.50;27.50;;;;;-0.83;100.00;101571.16;6288028;20;2500321;-42
2023/12/16 04:21:14;;;;;;;;;38.50;28.50;;;;;-0.37;100.00;101585.91;6284248;20;2500334;-40
2023/12/16 04:23:43;;;;;;;;;32.67;26.00;;;;;-0.46;100.00;101578.75;6288579;20;3580550;-40
2023/12/16 04:26:11;;;;;;;;;38.50;32.50;;;;;-0.60;100.00;101589.97;6317505;20;2854449;-42
2023/12/16 04:28:39;;;;;;;;;31.50;28.00;;;;;-0.46;100.00;101598.97;6288449;20;2860702;-41
2023/12/16 04:31:16;;;;;;;;;46.50;41.00;;;;;-0.67;100.00;101602.16;6283854;20;2500805;-41
2023/12/16 04:33:48;;;;;;;;;53.00;47.00;;;;;-0.33;100.00;101603.56;6281784;20;2871244;-40
2023/12/16 04:36:18;;;;;;;;;66.33;49.67;;;;;-0.75;100.00;101595.91;6316519;20;2886846;-40
2023/12/16 04:38:47;;;;;;;;;59.50;43.50;;;;;-0.48;100.00;101603.31;6315387;20;2867979;-41
2023/12/16 04:41:15;;;;;;;;;44.00;38.00;;;;;-0.54;100.00;101603.25;6281339;20;2500310;-41
2023/12/16 04:43:44;;;;;;;;;38.67;31.67;;;;;-0.40;100.00;101599.03;6281804;20;3593161;-42
2023/12/16 04:46:12;;;;;;;;;36.00;22.50;;;;;-0.40;100.00;101596.41;6279085;20;2491884;-40
2023/12/16 04:48:41;;;;;;;;;28.67;23.67;;;;;-0.38;100.00;101592.03;6280143;20;3573169;-40
2023/12/16 04:51:09;;;;;;;;;36.00;29.50;;;;;-0.47;100.00;101587.53;6285070;20;2845085;-40
2023/12/16 04:53:38;;;;;;;;;38.67;26.67;;;;;-0.89;100.00;101593.94;6283771;20;2875366;-41
2023/12/16 04:56:07;;;;;;;;;37.50;29.00;;;;;-0.92;100.00;101593.00;6314230;20;2860825;-42
2023/12/16 04:58:35;;;;;;;;;26.50;21.50;;;;;-0.91;100.00;101594.78;6280072;20;2850313;-40
2023/12/16 05:01:03;;;;;;;;;34.50;25.50;;;;;-1.00;100.00;101591.97;6279739;20;2858690;-41
2023/12/16 05:03:32;;;;;;;;;50.00;34.67;;;;;-0.82;100.00;101589.63;6281918;20;2883747;-39
2023/12/16 05:06:02;;;;;;;;;52.00;40.00;;;;;-0.77;100.00;101593.22;6310758;20;2873169;-40
2023/12/16 05:08:30;;;;;;;;;42.00;33.00;;;;;-1.01;100.00;101598.13;6280207;20;2860700;-39
2023/12/16 05:10:58;;;;;;;;;40.00;32.50;;;;;-0.65;100.00;101604.84;6275803;20;2502378;-41
2023/12/16 05:13:26;;;;;;;;;23.00;22.00;;;;;-0.52;100.00;101605.03;6282390;20;2832605;-41
2023/12/16 05:15:55;;;;;;;;;67.00;52.50;;;;;-0.70;100.00;101610.94;6280170;20;2865936;-41
2023/12/16 05:18:25;;;;;;;;;97.00;72.67;;;;;-0.41;100.00;101610.47;6281633;20;3661743;-40
2023/12/16 05:20:53;;;;;;;;;22.00;22.00;;;;;-0.41;100.00;101613.13;6310556;20;2500455;-40
2023/12/16 05:23:22;;;;;;;;;70.00;50.50;;;;;-0.48;100.00;101616.53;6282299;20;2883575;-40
2023/12/16 05:25:51;;;;;;;;;42.50;36.00;;;;;-0.63;100.00;101616.28;6281969;20;2869065;-41
2023/12/16 05:28:21;;;;;;;;;60.33;43.33;;;;;-0.33;100.00;101618.50;6276012;20;2887865;-40
2023/12/16 05:30:50;;;;;;;;;49.50;38.50;;;;;-0.43;100.00;101614.84;6311732;20;2869011;-40
2023/12/16 05:33:19;;;;;;;;;63.67;49.00;;;;;-0.45;100.00;101614.84;6282074;20;2870160;-39
2023/12/16 05:35:48;;;;;;;;;68.00;53.00;;;;;-0.43;100.00;101619.22;6313785;20;2867980;-40
2023/12/16 05:38:18;;;;;;;;;91.67;68.33;;;;;-0.29;100.00;101621.22;6282123;20;3661826;-43
2023/12/16 05:40:48;;;;;;;;;70.00;52.00;;;;;-0.52;100.00;101620.00;6310267;20;2884972;-42
2023/12/16 05:43:16;;;;;;;;;86.50;64.00;;;;;-0.36;100.00;101624.63;6307958;20;2500521;-41
2023/12/16 05:45:45;;;;;;;;;57.00;43.67;;;;;-0.55;100.00;101626.13;6280351;20;2878503;-39
2023/12/16 05:48:14;;;;;;;;;44.00;31.50;;;;;-0.29;100.00;101629.13;6310628;20;2859649;-40
2023/12/16 05:50:43;;;;;;;;;27.00;24.67;;;;;-0.52;100.00;101625.28;6279600;20;3579469;-40
2023/12/16 05:53:12;;;;;;;;;43.00;35.33;;;;;-0.54;100.00;101627.88;6279873;20;3598121;-40
2023/12/16 05:55:40;;;;;;;;;30.00;26.00;;;;;-0.61;100.00;101643.59;6283275;20;2843066;-39
2023/12/16 05:58:09;;;;;;;;;55.33;41.00;;;;;-0.23;100.00;101646.81;6282292;20;2875368;-40
2023/12/16 06:00:39;;;;;;;;;97.00;72.67;;;;;-0.50;100.00;101649.91;6309032;20;3646485;-40
2023/12/16 06:03:09;;;;;;;;;87.00;65.00;;;;;-0.48;100.00;101653.47;6312530;20;3650276;-38
2023/12/16 06:05:39;;;;;;;;;100.67;73.00;;;;;-0.52;100.00;101662.22;6310331;20;3672270;-40
2023/12/16 06:08:08;;;;;;;;;101.67;81.33;;;;;-0.80;100.00;101656.47;6313022;20;2884685;-39
2023/12/16 06:10:38;;;;;;;;;68.67;52.67;;;;;-0.76;100.00;101658.31;6310801;20;3624347;-39
2023/12/16 06:13:08;;;;;;;;;53.00;41.67;;;;;-0.52;100.00;101663.09;6310827;20;3623311;-40
2023/12/16 06:15:36;;;;;;;;;35.50;29.00;;;;;-0.51;100.00;101662.22;6307060;20;2500295;-40
2023/12/16 06:18:06;;;;;;;;;23.67;16.00;;;;;-0.24;100.00;101656.47;6282224;20;3565890;-40
2023/12/16 06:20:35;;;;;;;;;32.00;25.67;;;;;-0.15;100.00;101668.03;6312330;20;3571224;-41
2023/12/16 06:23:05;;;;;;;;;39.50;28.25;;;;;-0.28;100.00;101669.59;6313743;20;3620225;-40
2023/12/16 06:25:33;;;;;;;;;48.00;34.00;;;;;-0.10;100.00;101674.28;6306590;20;2500411;-40
2023/12/16 06:28:01;;;;;;;;;39.50;33.00;;;;;-0.17;100.00;101675.03;6282993;20;2576390;-40
2023/12/16 06:30:30;;;;;;;;;45.67;37.00;;;;;-0.23;100.00;101671.44;6279374;20;2873268;-40
2023/12/16 06:32:58;;;;;;;;;71.00;57.00;;;;;-0.19;100.00;101667.09;6311300;20;2500294;-40
2023/12/16 06:35:26;;;;;;;;;69.00;54.00;;;;;-0.28;100.00;101672.25;6278905;20;2500296;-39
2023/12/16 06:37:56;;;;;;;;;60.33;46.67;;;;;-0.33;100.00;101672.16;6280550;20;2874409;-45
2023/12/16 06:40:27;;;;;;;;;56.67;46.67;;;;;-0.46;100.00;101679.00;6311978;20;2864851;-46
2023/12/16 06:42:58;;;;;;;;;3.80;0.20;;;;;-0.34;100.00;101693.25;6348802;20;2727369;-46
2023/12/16 06:45:28;;;;;;;;;66.50;50.00;;;;;-0.03;100.00;101684.94;6312716;20;2863825;-46
2023/12/16 06:47:58;;;;;;;;;54.00;43.00;;;;;-0.09;100.00;101694.50;6280676;20;2886802;-46
2023/12/16 06:50:28;;;;;;;;;87.00;63.33;;;;;0.09;100.00;101694.78;6310898;20;3660687;-46
2023/12/16 06:52:56;;;;;;;;;67.50;52.50;;;;;-0.09;100.00;101694.50;6310711;20;2500360;-45
2023/12/16 06:55:26;;;;;;;;;112.00;88.00;;;;;0.14;100.00;101703.66;6277448;20;3687771;-45
2023/12/16 06:57:56;;;;;;;;;207.50;169.00;;;;;0.02;100.00;101706.09;6274825;20;4478382;-46
2023/12/16 07:00:25;;;;;;;;;70.33;60.33;;;;;0.22;100.00;101717.84;6275631;20;3602422;-46
2023/12/16 07:02:54;;;;;;;;;46.50;41.50;;;;;-0.01;100.00;101714.88;6280667;20;2864875;-45
2023/12/16 07:05:22;;;;;;;;;67.50;55.00;;;;;0.21;100.00;101717.81;6277215;20;2491885;-45
2023/12/16 07:07:51;;;;;;;;;87.50;69.50;;;;;0.14;100.00;101722.13;6279328;20;2877453;-46
2023/12/16 07:10:21;;;;;;;;;95.67;72.00;;;;;0.19;100.00;101723.09;6276584;20;3659649;-45
2023/12/16 07:12:50;;;;;;;;;84.50;67.50;;;;;0.41;100.00;101713.69;6313204;20;2883606;-44
2023/12/16 07:15:20;;;;;;;;;63.50;49.50;;;;;0.16;100.00;101717.78;6279226;20;2869018;-43
2023/12/16 07:17:50;;;;;;;;;90.00;68.33;;;;;0.22;100.00;101712.56;6282244;20;3657586;-44
2023/12/16 07:20:19;;;;;;;;;81.00;65.50;;;;;0.21;100.00;101721.34;6307235;20;2877365;-45
2023/12/16 07:22:47;;;;;;;;;67.00;52.00;;;;;0.16;100.00;101732.72;6277496;20;2500341;-44
2023/12/16 07:25:17;;;;;;;;;44.00;38.00;;;;;0.57;100.00;101735.00;6278938;20;2867106;-45
2023/12/16 07:27:46;;;;;;;;;34.50;29.50;;;;;0.43;100.00;101745.41;6310720;20;2854474;-44
2023/12/16 07:30:16;;;;;;;;;36.00;29.50;;;;;0.71;100.00;101748.38;6274657;20;2500285;-44
2023/12/16 07:32:45;;;;;;;;;39.00;34.00;;;;;0.72;100.00;101742.25;6277440;20;3594070;-43
2023/12/16 07:35:15;;;;;;;;;54.00;46.00;;;;;0.85;100.00;101738.88;6279264;20;2875273;-44
2023/12/16 07:37:44;;;;;;;;;59.00;49.00;;;;;0.67;100.00;101746.59;6280195;20;2861742;-45
2023/12/16 07:40:13;;;;;;;;;78.50;61.00;;;;;0.90;100.00;101750.41;6279255;20;2885698;-45
2023/12/16 07:42:41;;;;;;;;;59.50;47.00;;;;;0.72;100.00;101750.19;6265523;20;2496185;-46
2023/12/16 07:45:10;;;;;;;;;64.00;50.00;;;;;0.78;100.00;101742.31;6270559;20;2864958;-47
2023/12/16 07:47:39;;;;;;;;;50.00;44.00;;;;;0.86;100.00;101741.53;6277046;20;2868081;-46
2023/12/16 07:50:11;;;;;;;;;62.33;46.33;;;;;1.51;100.00;101740.41;6277386;20;2876445;-45
2023/12/16 07:52:38;;;;;;;;;57.00;47.00;;;;;1.87;100.00;101743.34;6307645;20;2500381;-46
2023/12/16 07:55:08;;;;;;;;;27.33;16.67;;;;;1.48;100.00;101734.22;6278964;20;3577361;-46
2023/12/16 07:57:37;;;;;;;;;77.50;62.00;;;;;1.47;100.00;101738.59;6308067;20;2879479;-46
2023/12/16 08:00:09;;;;;;;;;112.33;92.67;;;;;1.88;100.00;101743.34;6277118;20;3697163;-48
2023/12/16 08:02:37;;;;;;;;;72.00;55.50;;;;;2.00;100.00;101744.31;6273254;20;2500314;-45
2023/12/16 08:05:07;;;;;;;;;36.00;32.00;;;;;1.53;100.00;101741.31;6275698;20;2843111;-47
2023/12/16 08:07:35;;;;;;;;;48.50;40.50;;;;;1.85;100.00;101731.88;6281697;20;2853444;-47
2023/12/16 08:10:07;;;;;;;;;59.33;46.00;;;;;2.29;100.00;101742.75;6280665;20;2878621;-47
2023/12/16 08:12:36;;;;;;;;;63.50;48.00;;;;;2.52;97.83;101749.91;6314023;20;2864888;-46
2023/12/16 08:15:04;;;;;;;;;68.50;51.50;;;;;2.41;97.65;101758.69;6276735;20;2500286;-45
2023/12/16 08:17:33;;;;;;;;;54.00;43.50;;;;;2.49;97.68;101756.09;6278438;20;2857784;-47
2023/12/16 08:20:01;;;;;;;;;66.00;48.00;;;;;2.66;97.26;101757.94;6273639;20;2495034;-44
2023/12/16 08:22:30;;;;;;;;;51.00;46.50;;;;;2.75;96.78;101750.03;6279002;20;2863836;-45
2023/12/16 08:25:01;;;;;;;;;63.67;50.33;;;;;2.42;98.61;101759.59;6280560;20;2877376;-46
2023/12/16 08:27:30;;;;;;;;;55.50;46.00;;;;;2.40;99.75;101759.59;6306981;20;2859729;-47
2023/12/16 08:29:58;;;;;;;;;63.00;52.00;;;;;2.18;100.00;101760.34;6274924;20;2496173;-46
2023/12/16 08:32:27;;;;;;;;;56.33;43.67;;;;;2.69;100.00;101750.91;6280805;20;3583588;-46
2023/12/16 08:34:56;;;;;;;;;62.50;50.00;;;;;3.23;97.00;101764.31;6280692;20;2857553;-46
2023/12/16 08:37:26;;;;;;;;;68.00;55.00;;;;;3.08;96.14;101767.81;6280855;20;2869055;-46
2023/12/16 08:39:55;;;;;;;;;69.00;54.00;;;;;3.27;95.25;101780.25;6280090;20;2874259;-46
2023/12/16 08:42:24;;;;;;;;;93.50;75.00;;;;;3.12;96.11;101784.63;6278442;20;2711775;-46
2023/12/16 08:44:53;;;;;;;;;73.00;56.67;;;;;2.94;96.63;101782.81;6309618;20;3621105;-47
2023/12/16 08:47:23;;;;;;;;;90.67;74.00;;;;;3.36;95.41;101783.81;6315163;20;3646121;-47
2023/12/16 08:49:53;;;;;;;;;69.67;54.67;;;;;3.61;93.47;101785.63;6312317;20;2871108;-47
2023/12/16 08:52:23;;;;;;;;;85.00;64.67;;;;;3.76;92.60;101778.53;6315456;20;3655505;-49
2023/12/16 08:54:53;;;;;;;;;89.00;68.00;;;;;3.83;92.42;101775.00;6316404;20;3661818;-45
2023/12/16 08:57:21;;;;;;;;;68.00;53.50;;;;;3.80;92.26;101765.25;6280755;20;2500376;-49
2023/12/16 08:59:51;;;;;;;;;65.33;49.33;;;;;3.85;92.01;101773.22;6283096;20;2877414;-47
2023/12/16 09:02:21;;;;;;;;;83.00;64.00;;;;;4.01;90.64;101784.75;6317999;20;3649286;-46
2023/12/16 09:04:51;;;;;;;;;87.00;66.33;;;;;4.15;90.09;101780.28;6311984;20;3654429;-47
2023/12/16 09:07:20;;;;;;;;;55.00;46.00;;;;;4.18;89.58;101778.50;6313435;20;2856534;-45
2023/12/16 09:09:50;;;;;;;;;79.00;62.67;;;;;4.19;89.52;101768.78;6283007;20;3634764;-46
2023/12/16 09:12:19;;;;;;;;;51.00;42.00;;;;;4.35;88.03;101777.59;6315347;20;2863851;-46
2023/12/16 09:14:48;;;;;;;;;37.50;31.00;;;;;4.20;90.20;101780.28;6283686;20;2853473;-46
2023/12/16 09:17:17;;;;;;;;;54.67;43.00;;;;;4.74;87.33;101778.34;6284718;20;2869163;-46
2023/12/16 09:19:47;;;;;;;;;53.00;43.33;;;;;4.88;86.10;101779.19;6313253;20;2859781;-48
2023/12/16 09:22:20;;;;;;;;;47.00;35.33;;;;;4.73;86.04;101785.44;6317738;20;3629426;-47
2023/12/16 09:24:48;;;;;;;;;63.00;50.00;;;;;4.88;85.89;101784.50;6315233;20;2875435;-47
2023/12/16 09:27:18;;;;;;;;;51.00;43.50;;;;;4.97;85.44;101776.47;6283291;20;2868019;-46
2023/12/16 09:29:46;;;;;;;;;58.50;45.50;;;;;4.99;86.20;101777.34;6279906;20;2489858;-47
2023/12/16 09:32:15;;;;;;;;;56.00;44.50;;;;;5.07;84.57;101780.84;6283255;20;2861739;-47
2023/12/16 09:34:44;;;;;;;;;65.00;51.00;;;;;5.19;84.56;101773.72;6280701;20;2862806;-46
2023/12/16 09:37:14;;;;;;;;;48.33;38.67;;;;;5.03;83.90;101771.13;6283201;20;2874272;-46
2023/12/16 09:39:43;;;;;;;;;39.50;35.50;;;;;5.03;85.00;101773.78;6314520;20;2826413;-46
2023/12/16 09:42:14;;;;;;;;;32.00;30.00;;;;;5.20;83.28;101768.38;6280199;20;2860825;-48
2023/12/16 09:44:49;;;;;;;;;44.33;38.33;;;;;5.31;83.45;101781.63;6282789;20;2852378;-46
2023/12/16 09:47:18;;;;;;;;;35.33;33.67;;;;;5.61;83.33;101774.28;6314935;20;3603439;-48
2023/12/16 09:49:50;;;;;;;;;35.50;24.00;;;;;5.60;81.90;101785.88;6288634;20;2861755;-48
2023/12/16 09:52:19;;;;;;;;;29.50;24.50;;;;;5.61;82.03;101775.22;6283818;20;2854638;-47
2023/12/16 09:54:48;;;;;;;;;34.00;31.00;;;;;5.58;81.93;101769.91;6280654;20;2855522;-46
2023/12/16 09:57:19;;;;;;;;;34.00;29.50;;;;;5.54;80.71;101777.94;6282001;20;2848212;-46
2023/12/16 09:59:50;;;;;;;;;31.00;30.00;;;;;5.46;81.28;101765.53;6278155;20;2850356;-48
2023/12/16 10:02:28;;;;;;;;;37.50;36.50;;;;;5.55;80.77;101769.91;6279517;20;2849381;-46
2023/12/16 10:04:59;;;;;;;;;40.67;35.00;;;;;5.86;79.49;101770.53;6281320;20;2861832;-48
2023/12/16 10:07:28;;;;;;;;;31.33;29.00;;;;;5.67;79.90;101769.81;6317654;20;3589912;-48
2023/12/16 10:09:57;;;;;;;;;37.00;35.00;;;;;5.90;79.42;101771.44;6280069;20;2869026;-47
2023/12/16 10:12:33;;;;;;;;;30.50;27.00;;;;;6.03;79.35;101764.22;6282937;20;2839987;-50
2023/12/16 10:15:03;;;;;;;;;27.50;24.00;;;;;5.73;79.02;101758.22;6278509;20;2848190;-47
2023/12/16 10:17:32;;;;;;;;;21.00;21.00;;;;;6.08;77.76;101749.03;6283616;20;2841965;-45
2023/12/16 10:20:04;;;;;;;;;36.67;32.33;;;;;6.23;77.23;101753.34;6280304;20;2866946;-46
2023/12/16 10:22:34;;;;;;;;;34.00;30.00;;;;;6.31;75.96;101752.38;6312904;20;2852474;-48
2023/12/16 10:25:04;;;;;;;;;31.00;29.00;;;;;6.31;73.39;101744.38;6282401;20;2848218;-51
2023/12/16 10:27:34;;;;;;;;;43.67;38.00;;;;;6.44;74.89;101746.91;6280509;20;2861758;-49
2023/12/16 10:30:05;;;;;;;;;55.67;43.00;;;;;6.36;77.31;101739.88;6313285;20;2869059;-46
2023/12/16 10:32:41;;;;;;;;;69.00;53.33;;;;;6.22;78.30;101733.81;6313975;20;2868081;-46
2023/12/16 10:35:11;;;;;;;;;34.50;34.00;;;;;6.27;78.15;101723.97;6315001;20;2847237;-46
2023/12/16 10:37:49;;;;;;;;;53.00;38.00;;;;;6.11;77.64;101717.03;6283855;20;3633715;-49
2023/12/16 10:40:26;;;;;;;;;54.67;41.00;;;;;6.45;76.18;101713.97;6313571;20;3626329;-45
2023/12/16 10:42:55;;;;;;;;;44.00;37.67;;;;;6.35;74.66;101715.88;6317073;20;3606210;-47
2023/12/16 10:45:25;;;;;;;;;52.50;42.50;;;;;6.76;74.56;101711.81;6280462;20;2855484;-45
2023/12/16 10:47:56;;;;;;;;;39.50;36.00;;;;;6.64;70.80;101715.53;6283547;20;2860760;-46
2023/12/16 10:50:27;;;;;;;;;36.67;30.33;;;;;6.66;71.86;101713.75;6279893;20;3614859;-46
2023/12/16 10:52:57;;;;;;;;;31.33;25.67;;;;;6.50;72.59;101725.47;6310862;20;3592957;-48
2023/12/16 10:55:31;;;;;;;;;32.67;27.00;;;;;6.96;71.44;101730.25;6310678;20;3601354;-49
2023/12/16 10:58:09;;;;;;;;;27.50;27.00;;;;;7.08;71.71;101735.38;6312470;20;2838857;-48
2023/12/16 11:00:41;;;;;;;;;30.50;27.50;;;;;7.15;71.26;101734.41;6279145;20;2844098;-47